Allport, Pennsylvania
Current Conditions -  °F | °C
As of 8:32 PM on Wednesday 26 Nov 2014 (Local Time) from KFIG Reporting Station
Overcast Overcast  
Wind Chill: 30°   Ceiling: 2400
Heat Index: 30°   Visibility: 10mi
Dew Point: 29°   Wind: 3mph
Humidity: 96%   Direction: 290°WNW
Pressure: 29.96"   Gusts: NA
Location:  40.96°N, 78.2°W
Report Text: KFIG 270132Z AUTO 29003KT 10SM BKN024 OVC044 M01/M02 A2996 RMK AO2 SNE13 P0000 T10111017
Loading
Personal Weather Stations






























Interactive Weather Map New forecast layout! Learn more

10-Day Weather Forecast

Advertisements
Track Severe Weather on mobile